Riner, Wyoming
Current Conditions -  °F | °C
As of 3:53 PM on Tuesday 27 Jan 2015 (Local Time) from KRWL Reporting Station
Clear Clear  
Wind Chill: 50°   Ceiling: Unl
Heat Index: 50°   Visibility: 10mi
Dew Point: 25°   Wind: 16mph
Humidity: 38%   Direction: 230°SW
Pressure: 30.15"   Gusts: NA
Location:  41.7532°N, 107.372°W
Report Text: KRWL 272253Z AUTO 23014KT 10SM CLR 10/M04 A3015 RMK AO2 SLP194 T01001039
Loading
Personal Weather Stations






























Interactive Weather Map New forecast layout! Learn more

10-Day Weather Forecast

Advertisements
Track Severe Weather on mobile